createdAt,value
2019-02-06T00:07:40.261Z,21.8
2019-02-06T00:17:39.496Z,21.8
2019-02-06T00:27:38.682Z,22
2019-02-06T00:37:37.890Z,22
2019-02-06T00:47:37.099Z,21.9
2019-02-06T00:57:36.308Z,21.9
2019-02-06T01:07:35.516Z,21.9
2019-02-06T01:17:34.723Z,21.8
2019-02-06T01:27:33.933Z,21.8
2019-02-06T01:37:33.139Z,21.8
2019-02-06T01:47:32.346Z,21.8
2019-02-06T01:57:31.554Z,21.8
2019-02-06T02:07:30.762Z,21.8
2019-02-06T02:17:29.973Z,21.8
2019-02-06T02:27:29.177Z,21.8
2019-02-06T02:37:28.384Z,21.8
2019-02-06T02:47:27.595Z,21.8
2019-02-06T02:57:26.800Z,21.8
2019-02-06T03:07:26.013Z,21.9
2019-02-06T03:17:25.211Z,21.9
2019-02-06T03:27:24.430Z,21.9
2019-02-06T03:37:23.628Z,21.8
2019-02-06T03:47:22.843Z,21.8
2019-02-06T03:57:22.040Z,21.8
2019-02-06T04:07:21.251Z,21.8
2019-02-06T04:17:20.454Z,21.8
2019-02-06T04:27:19.664Z,21.7
2019-02-06T04:37:18.866Z,21.8
2019-02-06T04:47:18.073Z,21.7
2019-02-06T04:57:17.284Z,21.8
2019-02-06T05:07:18.907Z,21.7
2019-02-06T05:17:15.688Z,21.7
2019-02-06T05:27:14.900Z,21.8
2019-02-06T05:37:14.103Z,21.8
2019-02-06T05:47:13.316Z,21.7
2019-02-06T05:57:12.526Z,21.7
2019-02-06T06:07:11.750Z,21.9
2019-02-06T06:17:10.971Z,21.8
2019-02-06T06:27:10.161Z,21.7
2019-02-06T06:37:09.376Z,21.6
2019-02-06T06:47:08.592Z,21.6
2019-02-06T06:57:07.848Z,21.6
2019-02-06T07:07:07.013Z,21.9
2019-02-06T07:17:06.224Z,22.1
2019-02-06T07:27:05.431Z,21.9
2019-02-06T07:37:04.647Z,21.8
2019-02-06T07:47:03.852Z,21.7
2019-02-06T07:57:03.058Z,21.6
2019-02-06T08:07:02.266Z,21.6
2019-02-06T08:17:01.475Z,21.6
2019-02-06T08:27:00.686Z,21.7
2019-02-06T08:36:59.896Z,21.7
2019-02-06T08:46:59.105Z,21.6
2019-02-06T08:56:58.312Z,21.6
2019-02-06T09:06:57.572Z,21.6
2019-02-06T09:16:56.739Z,21.6
2019-02-06T09:26:55.948Z,21.5
2019-02-06T09:36:55.147Z,21.7
2019-02-06T09:46:54.351Z,22
2019-02-06T09:56:53.556Z,22.3
2019-02-06T10:06:54.421Z,22.3
2019-02-06T10:16:51.967Z,22.2
2019-02-06T10:26:51.183Z,22.1
2019-02-06T10:36:50.390Z,21.9
2019-02-06T10:46:49.589Z,21.9
2019-02-06T10:56:48.801Z,21.9
2019-02-06T11:06:48.002Z,21.8
2019-02-06T11:16:47.209Z,21.8
2019-02-06T11:26:46.414Z,21.8
2019-02-06T11:36:45.621Z,21.8
2019-02-06T11:46:44.827Z,21.8
2019-02-06T11:56:44.033Z,21.7
2019-02-06T12:06:43.240Z,22
2019-02-06T12:16:42.446Z,21.9
2019-02-06T12:26:41.700Z,21.9
2019-02-06T12:36:40.854Z,21.9
2019-02-06T12:46:40.061Z,21.8
2019-02-06T12:56:39.268Z,21.8
2019-02-06T13:06:38.470Z,21.8
2019-02-06T13:16:37.677Z,21.8
2019-02-06T13:26:36.883Z,21.7
2019-02-06T13:36:36.092Z,21.8
2019-02-06T13:46:35.302Z,21.7
2019-02-06T13:56:34.515Z,21.8
2019-02-06T14:06:33.726Z,21.8
2019-02-06T14:16:32.932Z,21.8
2019-02-06T14:26:32.138Z,21.7
2019-02-06T14:36:31.344Z,21.7
2019-02-06T14:46:30.552Z,21.8
2019-02-06T14:56:29.759Z,21.8
2019-02-06T15:06:28.965Z,21.8
2019-02-06T15:16:28.171Z,21.7
2019-02-06T15:26:27.377Z,21.8
2019-02-06T15:36:26.582Z,21.9
2019-02-06T15:46:25.790Z,21.9
2019-02-06T15:56:24.996Z,21.9
2019-02-06T16:06:24.205Z,21.8
2019-02-06T16:16:23.466Z,21.8
2019-02-06T16:26:22.626Z,21.7
2019-02-06T16:36:21.842Z,21.6
2019-02-06T16:46:21.054Z,21.8
2019-02-06T16:56:20.267Z,22
2019-02-06T17:06:19.536Z,22.3
2019-02-06T17:16:18.689Z,22.4
2019-02-06T17:26:17.904Z,22.3
2019-02-06T17:36:17.150Z,22.1
2019-02-06T17:46:16.335Z,22.1
2019-02-06T17:56:15.556Z,22
2019-02-06T18:06:14.768Z,21.9
2019-02-06T18:16:21.014Z,21.8
2019-02-06T18:26:13.199Z,21.8
2019-02-06T18:36:12.412Z,21.8
2019-02-06T18:46:11.629Z,21.8
2019-02-06T18:56:10.847Z,21.8
2019-02-06T19:06:10.112Z,21.8
2019-02-06T19:16:21.357Z,21.8
2019-02-06T19:26:20.604Z,21.9
2019-02-06T19:36:19.795Z,22
2019-02-06T19:46:19.038Z,22
2019-02-06T19:56:18.226Z,21.9
2019-02-06T20:06:17.439Z,21.9
2019-02-06T20:16:16.708Z,21.9
2019-02-06T20:26:16.000Z,21.9
2019-02-06T20:36:15.291Z,21.9
2019-02-06T20:46:14.584Z,21.9
2019-02-06T20:56:13.874Z,22.1
2019-02-06T21:06:13.165Z,22.1
2019-02-06T21:16:12.378Z,22
2019-02-06T21:26:11.589Z,21.9
2019-02-06T21:36:10.803Z,21.9
2019-02-06T21:46:10.012Z,21.9
2019-02-06T21:56:09.222Z,22.1
2019-02-06T22:06:08.433Z,22.1
2019-02-06T22:16:07.644Z,22
2019-02-06T22:26:06.852Z,21.9
2019-02-06T22:36:06.063Z,22.1
2019-02-06T22:46:05.275Z,22.1
2019-02-06T22:56:04.482Z,22
2019-02-06T23:06:03.693Z,22
2019-02-06T23:16:02.900Z,21.9
2019-02-06T23:26:02.108Z,21.9
2019-02-06T23:36:01.318Z,21.9
2019-02-06T23:46:00.526Z,22.1
2019-02-06T23:55:59.734Z,22
